Time;durP1;ratioP1;P1;durP2;ratioP2;P2;SDS_P1;SDS_P2;PMS_P1;PMS_P2;Temp;Humidity;BMP_temperature;BMP_pressure;BME280_temperature;BME280_humidity;BME280_pressure;Samples;Min_cycle;Max_cycle;Signal;HPM_P1;HPM_P2
2022/09/01 00:00:12;;;;;;;7.70;3.30;;;;;17.60;97341.00;;;;111026;1250;41145;-67
2022/09/01 00:03:00;;;;;;;9.00;3.70;;;;;17.70;97337.80;;;;110754;1250;41630;-68
2022/09/01 00:05:31;;;;;;;8.20;3.30;;;;;17.70;97330.80;;;;110738;1251;41268;-68
2022/09/01 00:08:01;;;;;;;10.40;3.80;;;;;17.60;97328.80;;;;110805;1252;41620;-68
2022/09/01 00:10:31;;;;;;;8.00;3.10;;;;;17.60;97325.60;;;;110654;1250;41921;-68
2022/09/01 00:13:01;;;;;;;6.30;2.60;;;;;17.60;97329.60;;;;110909;1249;42367;-68
2022/09/01 00:15:31;;;;;;;6.80;2.60;;;;;17.60;97328.60;;;;110775;1249;41157;-68
2022/09/01 00:18:01;;;;;;;5.90;2.50;;;;;17.60;97328.40;;;;110929;1250;41211;-67
2022/09/01 00:20:32;;;;;;;5.70;2.30;;;;;17.60;97323.00;;;;110810;1250;42248;-68
2022/09/01 00:23:02;;;;;;;6.60;2.60;;;;;17.60;97322.40;;;;110657;1251;41389;-69
2022/09/01 00:25:32;;;;;;;;;;;;;17.68;97319.00;;;;110930;1249;41261;-67
2022/09/01 00:28:03;;;;;;;9.20;3.10;;;;;17.60;97320.00;;;;110825;1249;41733;-69
2022/09/01 00:30:33;;;;;;;8.10;3.20;;;;;17.60;97320.60;;;;110908;1250;41586;-67
2022/09/01 00:33:02;;;;;;;9.50;3.40;;;;;17.60;97320.00;;;;110609;1250;42136;-68
2022/09/01 00:35:32;;;;;;;7.70;3.00;;;;;17.60;97317.00;;;;110633;1249;41271;-69
2022/09/01 00:38:05;;;;;;;5.50;2.60;;;;;17.60;97316.60;;;;110620;1250;41156;-69
2022/09/01 00:40:34;;;;;;;5.10;2.40;;;;;17.60;97315.40;;;;110824;1251;41257;-68
2022/09/01 00:43:13;;;;;;;6.30;2.70;;;;;17.70;97319.20;;;;110650;1251;42234;-68
2022/09/01 00:45:43;;;;;;;6.50;2.90;;;;;17.70;97314.40;;;;110750;1251;41562;-69
2022/09/01 00:48:13;;;;;;;5.40;2.30;;;;;17.70;97311.60;;;;110822;1250;41160;-68
2022/09/01 00:50:43;;;;;;;5.60;2.30;;;;;17.80;97309.40;;;;110687;1250;41149;-70
2022/09/01 00:53:14;;;;;;;6.40;2.70;;;;;17.80;97309.40;;;;110701;1249;41662;-69
2022/09/01 00:55:46;;;;;;;5.20;2.20;;;;;17.80;97315.80;;;;110876;1250;41850;-69
2022/09/01 00:58:18;;;;;;;5.80;2.50;;;;;17.80;97315.00;;;;110838;1251;42317;-68
2022/09/01 01:00:52;;;;;;;5.60;2.30;;;;;17.80;97318.80;;;;110694;1249;41607;-68
2022/09/01 01:03:23;;;;;;;7.30;2.70;;;;;17.84;97326.20;;;;110903;1249;41253;-68
2022/09/01 01:05:56;;;;;;;6.00;2.40;;;;;17.90;97329.80;;;;110830;1249;41881;-68
2022/09/01 01:08:33;;;;;;;6.30;2.80;;;;;17.90;97329.00;;;;110783;1250;41617;-68
2022/09/01 01:11:17;;;;;;;8.40;3.30;;;;;17.90;97330.80;;;;110648;1251;41163;-68
2022/09/01 01:13:53;;;;;;;8.80;3.60;;;;;17.90;97331.40;;;;110826;1250;42670;-68
2022/09/01 01:16:26;;;;;;;7.60;3.10;;;;;17.90;97328.20;;;;110755;1249;41484;-68
2022/09/01 01:18:56;;;;;;;7.90;3.00;;;;;17.90;97328.00;;;;110694;1249;41214;-68
2022/09/01 01:24:28;;;;;;;6.90;2.90;;;;;17.90;97325.40;;;;110862;1249;41143;-69
2022/09/01 01:26:59;;;;;;;5.60;2.50;;;;;17.90;97324.40;;;;110758;1251;41719;-68
2022/09/01 01:29:38;;;;;;;8.80;2.50;;;;;17.90;97323.60;;;;110661;1249;41153;-69
2022/09/01 01:32:11;;;;;;;6.30;2.70;;;;;17.90;97326.40;;;;110741;1252;41214;-69
2022/09/01 01:34:44;;;;;;;5.80;2.50;;;;;17.90;97322.20;;;;110879;1249;41753;-68
2022/09/01 01:37:17;;;;;;;6.30;2.40;;;;;17.90;97318.00;;;;110665;1251;42485;-68
2022/09/01 01:39:47;;;;;;;5.80;2.30;;;;;17.90;97313.60;;;;110729;1251;41157;-69
2022/09/01 01:42:19;;;;;;;5.60;2.40;;;;;17.90;97315.40;;;;110678;1250;41274;-69
2022/09/01 01:44:49;;;;;;;7.70;3.20;;;;;17.90;97311.80;;;;110611;1252;41264;-69
2022/09/01 01:47:20;;;;;;;9.20;3.50;;;;;17.80;97315.60;;;;110941;1249;41908;-69
2022/09/01 01:49:53;;;;;;;8.10;3.50;;;;;17.80;97305.60;;;;110753;1250;41269;-69
2022/09/01 01:52:23;;;;;;;9.20;3.90;;;;;17.80;97315.80;;;;110755;1251;42420;-69
2022/09/01 01:54:55;;;;;;;8.10;3.50;;;;;17.80;97316.20;;;;110702;1250;41373;-68
2022/09/01 01:57:31;;;;;;;9.00;3.60;;;;;17.80;97313.40;;;;110633;1250;41959;-68
2022/09/01 02:00:02;;;;;;;9.50;3.80;;;;;17.80;97312.20;;;;110673;1250;41464;-68
2022/09/01 02:02:40;;;;;;;8.20;3.80;;;;;17.80;97313.80;;;;110785;1250;41278;-68
2022/09/01 02:05:11;;;;;;;10.90;4.30;;;;;17.80;97318.60;;;;110790;1251;42035;-68
2022/09/01 02:07:42;;;;;;;7.40;3.50;;;;;17.80;97314.40;;;;110641;1251;41394;-67
2022/09/01 02:10:14;;;;;;;8.00;3.40;;;;;17.80;97307.20;;;;110640;1251;41271;-67
2022/09/01 02:12:46;;;;;;;8.50;3.40;;;;;17.80;97303.40;;;;110585;1251;41171;-67
2022/09/01 02:15:19;;;;;;;7.50;3.40;;;;;17.80;97299.40;;;;110711;1251;41217;-68
2022/09/01 02:17:49;;;;;;;;;;;;;17.80;97291.00;;;;110713;1251;42012;-68
2022/09/01 02:20:23;;;;;;;6.30;2.70;;;;;17.80;97291.60;;;;110560;1252;41166;-68
2022/09/01 02:22:54;;;;;;;6.40;2.50;;;;;17.74;97290.60;;;;110688;1252;41257;-68
2022/09/01 02:25:26;;;;;;;6.90;3.00;;;;;17.70;97286.00;;;;110498;1252;42189;-69
2022/09/01 02:28:00;;;;;;;7.00;3.10;;;;;17.70;97289.00;;;;110577;1252;41271;-68
2022/09/01 02:30:33;;;;;;;7.90;3.20;;;;;17.70;97290.00;;;;110627;1252;42402;-68
2022/09/01 02:33:05;;;;;;;7.10;3.10;;;;;17.60;97290.40;;;;110554;1251;41597;-69
2022/09/01 02:35:36;;;;;;;7.30;3.10;;;;;17.60;97286.80;;;;110598;1252;41163;-69
2022/09/01 02:38:07;;;;;;;7.40;3.10;;;;;17.50;97292.40;;;;110679;1251;42488;-69
2022/09/01 02:40:39;;;;;;;;;;;;;17.50;97289.60;;;;110696;1251;41239;-68
2022/09/01 02:43:10;;;;;;;6.90;2.90;;;;;17.40;97281.40;;;;110753;1250;41328;-68
2022/09/01 02:45:43;;;;;;;6.20;2.70;;;;;17.40;97280.00;;;;110572;1251;41943;-68
2022/09/01 02:48:13;;;;;;;7.90;2.80;;;;;17.40;97284.00;;;;110551;1253;41150;-68
2022/09/01 02:50:43;;;;;;;;;;;;;17.30;97285.40;;;;110683;1251;42169;-68
2022/09/01 02:53:15;;;;;;;5.70;2.40;;;;;17.30;97287.40;;;;110596;1251;41155;-69
2022/09/01 02:55:46;;;;;;;6.30;2.60;;;;;17.28;97289.00;;;;110613;1251;41275;-68
2022/09/01 02:58:17;;;;;;;7.20;3.00;;;;;17.24;97285.20;;;;110605;1250;42237;-68
2022/09/01 03:00:52;;;;;;;6.60;2.90;;;;;17.20;97280.80;;;;110540;1251;42490;-68
2022/09/01 03:03:25;;;;;;;6.80;3.10;;;;;17.20;97284.00;;;;110656;1251;41204;-68
2022/09/01 03:05:55;;;;;;;7.50;3.10;;;;;17.20;97287.40;;;;110530;1252;41263;-69
2022/09/01 03:08:26;;;;;;;8.80;4.10;;;;;17.20;97286.40;;;;110581;1252;41163;-68
2022/09/01 03:11:00;;;;;;;8.90;3.60;;;;;17.20;97289.00;;;;110716;1251;41148;-68
2022/09/01 03:13:30;;;;;;;8.40;4.30;;;;;17.20;97288.00;;;;110580;1251;41177;-68
2022/09/01 03:16:00;;;;;;;8.60;4.10;;;;;17.20;97284.60;;;;110655;1251;41711;-68
2022/09/01 03:18:31;;;;;;;7.60;3.20;;;;;17.24;97289.00;;;;110688;1251;41265;-68
2022/09/01 03:21:01;;;;;;;7.30;3.30;;;;;17.20;97291.60;;;;110736;1251;41713;-68
2022/09/01 03:23:32;;;;;;;7.30;3.00;;;;;17.20;97294.80;;;;110617;1251;41969;-67
2022/09/01 03:26:02;;;;;;;8.90;3.70;;;;;17.22;97292.80;;;;110771;1249;41168;-68
2022/09/01 03:28:33;;;;;;;8.30;3.40;;;;;17.20;97291.00;;;;110663;1249;41146;-68
2022/09/01 03:31:03;;;;;;;9.00;3.80;;;;;17.20;97291.80;;;;110616;1251;41132;-68
2022/09/01 03:33:35;;;;;;;8.50;3.80;;;;;17.20;97292.00;;;;110619;1251;41273;-66
2022/09/01 03:36:08;;;;;;;8.90;4.10;;;;;17.20;97293.80;;;;110555;1252;41280;-67
2022/09/01 03:38:49;;;;;;;9.10;4.20;;;;;17.20;97296.40;;;;110556;1252;42499;-69
2022/09/01 03:41:27;;;;;;;8.10;3.60;;;;;17.20;97293.40;;;;110825;1252;41617;-66
2022/09/01 03:43:58;;;;;;;9.10;3.70;;;;;17.20;97297.20;;;;110640;1252;41732;-67
2022/09/01 03:46:30;;;;;;;7.90;3.60;;;;;17.20;97295.80;;;;110750;1252;41158;-67
2022/09/01 03:49:11;;;;;;;9.90;3.60;;;;;17.22;97291.00;;;;110619;1251;42135;-67
2022/09/01 03:51:43;;;;;;;8.90;3.80;;;;;17.30;97292.60;;;;110776;1250;41201;-67
2022/09/01 03:54:14;;;;;;;10.90;4.40;;;;;17.30;97299.60;;;;110703;1251;41434;-67
2022/09/01 03:56:44;;;;;;;9.30;4.00;;;;;17.30;97298.80;;;;110642;1253;42756;-67
2022/09/01 03:59:18;;;;;;;9.40;3.60;;;;;17.30;97298.40;;;;110609;1251;41392;-66
2022/09/01 04:01:47;;;;;;;9.50;3.70;;;;;17.30;97296.40;;;;110858;1250;41156;-66
2022/09/01 04:04:17;;;;;;;7.20;3.10;;;;;17.32;97295.40;;;;110937;1250;41375;-67
2022/09/01 04:06:46;;;;;;;9.70;4.50;;;;;17.40;97296.80;;;;110779;1252;42394;-67
2022/09/01 04:09:16;;;;;;;9.40;4.60;;;;;17.40;97294.00;;;;110804;1249;41632;-68
2022/09/01 04:11:47;;;;;;;;;;;;;17.40;97300.20;;;;110954;1249;41156;-67
2022/09/01 04:14:16;;;;;;;10.60;4.30;;;;;17.40;97299.40;;;;110749;1249;41157;-68
2022/09/01 04:19:38;;;;;;;9.30;3.60;;;;;17.50;97293.40;;;;110944;1251;40915;-68
2022/09/01 04:22:13;;;;;;;10.00;4.80;;;;;17.50;97296.80;;;;110936;1249;41760;-68
2022/09/01 04:24:44;;;;;;;10.10;4.10;;;;;17.58;97298.40;;;;110947;1249;41184;-68
2022/09/01 04:27:16;;;;;;;8.10;3.50;;;;;17.60;97301.80;;;;110915;1249;41146;-68
2022/09/01 04:29:47;;;;;;;8.30;3.50;;;;;17.60;97299.80;;;;110722;1249;41156;-67
2022/09/01 04:32:20;;;;;;;8.10;3.40;;;;;17.64;97300.20;;;;110720;1251;40763;-67
2022/09/01 04:34:54;;;;;;;8.20;3.80;;;;;17.70;97301.60;;;;110964;1249;41173;-68
2022/09/01 04:37:23;;;;;;;7.80;3.90;;;;;17.76;97300.80;;;;111013;1249;41164;-67
2022/09/01 04:39:56;;;;;;;8.50;3.90;;;;;17.80;97299.40;;;;110897;1249;41151;-67
2022/09/01 04:42:31;;;;;;;10.50;4.10;;;;;17.88;97300.80;;;;110881;1249;42186;-67
2022/09/01 04:45:05;;;;;;;9.00;4.00;;;;;17.90;97298.20;;;;110900;1248;41192;-68
2022/09/01 04:47:44;;;;;;;9.90;4.40;;;;;17.90;97299.40;;;;111011;1249;41248;-68
2022/09/01 04:50:20;;;;;;;13.60;4.50;;;;;17.90;97298.20;;;;110982;1249;41169;-69
2022/09/01 04:53:12;;;;;;;12.50;5.30;;;;;17.98;97294.60;;;;110813;1249;41978;-69
2022/09/01 04:55:46;;;;;;;10.70;4.90;;;;;17.84;97290.80;;;;109657;1251;1522637;-68
2022/09/01 04:58:19;;;;;;;11.10;4.90;;;;;17.80;97289.20;;;;110765;1249;41460;-68
2022/09/01 05:00:52;;;;;;;13.40;5.20;;;;;17.88;97290.60;;;;110823;1250;41593;-68
2022/09/01 05:03:24;;;;;;;12.60;5.00;;;;;17.82;97289.00;;;;110778;1249;41911;-67
2022/09/01 05:06:19;;;;;;;9.30;4.50;;;;;17.96;97287.00;;;;110925;1250;41257;-68
2022/09/01 05:08:52;;;;;;;9.40;4.00;;;;;18.10;97281.00;;;;110807;1249;42042;-66
2022/09/01 05:11:40;;;;;;;9.80;4.30;;;;;18.20;97275.20;;;;110640;1249;41162;-66
2022/09/01 05:14:18;;;;;;;11.60;4.60;;;;;18.40;97268.60;;;;110887;1249;43275;-66
2022/09/01 05:16:49;;;;;;;11.90;4.80;;;;;18.60;97270.80;;;;110695;1251;41153;-66
2022/09/01 05:19:19;;;;;;;8.10;3.70;;;;;18.70;97264.60;;;;110610;1250;41153;-65
2022/09/01 05:21:49;;;;;;;9.20;4.30;;;;;18.86;97263.00;;;;110755;1251;42487;-66
2022/09/01 05:24:20;;;;;;;10.00;4.00;;;;;19.00;97261.20;;;;110836;1249;40808;-66
2022/09/01 05:26:49;;;;;;;10.20;3.50;;;;;19.20;97263.20;;;;110601;1251;41294;-66
2022/09/01 05:29:20;;;;;;;6.90;3.20;;;;;19.40;97266.80;;;;110848;1249;41760;-66
2022/09/01 05:31:51;;;;;;;8.40;3.60;;;;;19.66;97268.20;;;;110860;1249;41148;-66
2022/09/01 05:34:25;;;;;;;12.00;3.70;;;;;19.80;97264.60;;;;110957;1251;41549;-66
2022/09/01 05:36:58;;;;;;;8.00;3.60;;;;;19.90;97263.60;;;;110833;1250;41162;-66
2022/09/01 05:39:28;;;;;;;7.20;3.10;;;;;20.04;97265.20;;;;110760;1250;42440;-66
2022/09/01 05:42:00;;;;;;;15.90;3.60;;;;;20.20;97265.00;;;;110969;1251;41151;-67
2022/09/01 05:44:29;;;;;;;8.10;3.70;;;;;20.30;97259.60;;;;110625;1251;41680;-66
2022/09/01 05:46:58;;;;;;;8.10;3.80;;;;;20.50;97263.60;;;;110781;1250;41353;-67
2022/09/01 05:49:31;;;;;;;9.60;3.80;;;;;20.68;97265.80;;;;110875;1250;42905;-65
2022/09/01 05:52:04;;;;;;;8.70;3.60;;;;;20.80;97266.20;;;;110910;1249;41491;-66
2022/09/01 05:54:33;;;;;;;8.80;4.00;;;;;20.90;97271.40;;;;110847;1248;41177;-66
2022/09/01 05:57:03;;;;;;;10.80;4.20;;;;;21.00;97267.80;;;;110904;1250;41266;-66
2022/09/01 05:59:53;;;;;;;10.50;3.90;;;;;21.00;97266.80;;;;110769;1250;41932;-66
2022/09/01 06:02:25;;;;;;;10.10;4.60;;;;;21.10;97266.60;;;;110937;1249;41248;-66
2022/09/01 06:04:58;;;;;;;9.40;4.20;;;;;21.30;97253.60;;;;110768;1251;41163;-68
2022/09/01 06:07:36;;;;;;;10.90;3.80;;;;;22.46;97246.40;;;;111008;1249;41315;-65
2022/09/01 06:10:10;;;;;;;8.20;3.60;;;;;23.62;97235.00;;;;110863;1250;41273;-66
2022/09/01 06:12:46;;;;;;;8.30;3.90;;;;;25.10;97228.80;;;;110855;1250;41239;-66
2022/09/01 06:15:21;;;;;;;7.40;3.20;;;;;26.46;97232.00;;;;110950;1249;41261;-66
2022/09/01 06:17:55;;;;;;;8.20;3.80;;;;;27.40;97238.00;;;;110773;1249;41146;-65
2022/09/01 06:20:29;;;;;;;9.30;4.10;;;;;28.04;97233.00;;;;110716;1251;41591;-66
2022/09/01 06:22:59;;;;;;;7.50;3.30;;;;;28.50;97233.60;;;;111003;1249;41145;-67
2022/09/01 06:25:29;;;;;;;6.90;2.70;;;;;28.30;97230.80;;;;110860;1251;41155;-67
2022/09/01 06:27:59;;;;;;;9.30;2.90;;;;;28.70;97228.40;;;;110704;1251;41415;-68
2022/09/01 06:30:28;;;;;;;8.00;2.90;;;;;29.30;97224.20;;;;110651;1251;42090;-67
2022/09/01 06:33:09;;;;;;;6.40;2.70;;;;;29.40;97229.60;;;;110701;1249;41448;-67
2022/09/01 06:35:41;;;;;;;6.40;2.60;;;;;29.72;97228.80;;;;110717;1249;41151;-68
2022/09/01 06:38:12;;;;;;;6.80;2.90;;;;;30.30;97230.20;;;;110622;1249;41157;-67
2022/09/01 06:40:47;;;;;;;7.20;2.50;;;;;30.90;97227.00;;;;110664;1251;41193;-67
2022/09/01 06:43:19;;;;;;;9.50;2.50;;;;;31.60;97228.40;;;;110683;1249;41455;-67
2022/09/01 06:45:53;;;;;;;5.90;2.30;;;;;31.98;97246.00;;;;110852;1249;42470;-67
2022/09/01 06:48:23;;;;;;;6.50;2.70;;;;;31.96;97234.40;;;;110705;1249;41155;-67
2022/09/01 06:51:01;;;;;;;6.70;2.50;;;;;31.96;97240.80;;;;110632;1248;41369;-67
2022/09/01 06:53:55;;;;;;;6.60;2.50;;;;;31.60;97237.40;;;;110634;1251;41607;-68
2022/09/01 06:56:30;;;;;;;5.90;2.40;;;;;31.32;97252.80;;;;110602;1252;41180;-65
2022/09/01 06:59:04;;;;;;;6.80;2.10;;;;;30.56;97248.40;;;;110861;1250;41151;-65
2022/09/01 07:01:34;;;;;;;4.80;2.10;;;;;30.00;97251.80;;;;110715;1250;41269;-66
2022/09/01 07:04:03;;;;;;;5.70;2.20;;;;;29.90;97253.80;;;;110842;1249;41606;-66
2022/09/01 07:06:52;;;;;;;6.40;2.20;;;;;30.02;97245.40;;;;110960;1250;41873;-67
2022/09/01 07:10:08;;;;;;;8.30;2.70;;;;;30.90;97242.00;;;;110607;1251;41199;-66
2022/09/01 07:13:18;;;;;;;5.30;2.30;;;;;31.64;97233.60;;;;110986;1249;41147;-67
2022/09/01 07:15:49;;;;;;;7.30;2.50;;;;;31.90;97242.00;;;;110720;1249;41707;-67
2022/09/01 07:18:40;;;;;;;6.50;2.50;;;;;31.26;97237.60;;;;110708;1250;41143;-67
2022/09/01 07:21:10;;;;;;;5.10;2.20;;;;;31.50;97234.80;;;;110761;1250;42378;-67
2022/09/01 07:24:00;;;;;;;5.70;2.30;;;;;31.86;97232.20;;;;110796;1250;41159;-66
2022/09/01 07:26:40;;;;;;;5.60;2.30;;;;;32.40;97231.80;;;;110646;1250;41187;-67
2022/09/01 07:29:20;;;;;;;5.30;2.00;;;;;32.78;97232.20;;;;110730;1249;41276;-67
2022/09/01 07:31:51;;;;;;;11.40;2.30;;;;;32.58;97230.40;;;;110825;1250;41136;-67
2022/09/01 07:34:40;;;;;;;5.90;2.30;;;;;33.06;97228.80;;;;110855;1249;41755;-66
2022/09/01 07:37:14;;;;;;;6.50;2.20;;;;;32.98;97225.00;;;;110751;1251;41508;-67
2022/09/01 07:40:07;;;;;;;5.10;2.00;;;;;33.64;97221.40;;;;110756;1251;41133;-67
2022/09/01 07:43:27;;;;;;;8.30;2.60;;;;;34.16;97217.20;;;;110450;1252;41522;-67
2022/09/01 07:46:19;;;;;;;4.80;2.00;;;;;33.80;97218.80;;;;110865;1251;41150;-67
2022/09/01 07:49:05;;;;;;;5.50;2.20;;;;;33.58;97218.80;;;;110905;1249;41154;-69
2022/09/01 07:51:55;;;;;;;4.80;2.10;;;;;33.40;97225.20;;;;110943;1249;41155;-66
2022/09/01 07:54:24;;;;;;;4.00;1.80;;;;;33.28;97220.20;;;;110818;1250;42212;-66
2022/09/01 07:56:54;;;;;;;6.70;2.60;;;;;32.72;97221.20;;;;110864;1249;41271;-66
2022/09/01 07:59:25;;;;;;;;;;;;;30.78;97226.20;;;;110674;1249;41897;-67
2022/09/01 08:02:04;;;;;;;7.00;2.40;;;;;30.78;97228.20;;;;110622;1249;41261;-67
2022/09/01 08:04:33;;;;;;;5.40;2.50;;;;;31.00;97229.00;;;;110966;1250;41307;-66
2022/09/01 08:07:04;;;;;;;6.80;2.40;;;;;29.22;97237.20;;;;110764;1251;41494;-66
2022/09/01 08:09:36;;;;;;;5.00;2.10;;;;;29.26;97237.40;;;;110887;1250;40776;-66
2022/09/01 08:12:12;;;;;;;5.60;2.40;;;;;29.96;97237.40;;;;110647;1249;41158;-66
2022/09/01 08:14:46;;;;;;;6.30;2.30;;;;;29.64;97233.40;;;;110611;1252;42389;-66
2022/09/01 08:17:15;;;;;;;5.70;2.00;;;;;30.50;97232.00;;;;110613;1252;41133;-66
2022/09/01 08:19:46;;;;;;;5.60;2.40;;;;;30.76;97227.20;;;;110736;1252;41183;-67
2022/09/01 08:22:24;;;;;;;5.80;2.40;;;;;31.32;97221.60;;;;110779;1250;41260;-67
2022/09/01 08:25:07;;;;;;;4.60;2.00;;;;;30.44;97219.60;;;;110782;1249;42411;-66
2022/09/01 08:27:40;;;;;;;17.10;2.80;;;;;31.42;97218.60;;;;110638;1251;42252;-67
2022/09/01 08:30:11;;;;;;;5.80;2.30;;;;;31.08;97218.60;;;;110830;1251;41159;-67
2022/09/01 08:32:41;;;;;;;6.90;2.60;;;;;30.54;97218.20;;;;110730;1251;42059;-66
2022/09/01 08:35:12;;;;;;;8.90;2.70;;;;;32.20;97217.80;;;;110853;1249;41930;-67
2022/09/01 08:37:40;;;;;;;;;;;;;32.04;97210.40;;;;110649;1251;41714;-66
2022/09/01 08:40:14;;;;;;;5.20;2.00;;;;;33.24;97205.80;;;;110717;1252;41184;-67
2022/09/01 08:42:58;;;;;;;6.00;2.30;;;;;33.54;97204.60;;;;110437;1252;41645;-67
2022/09/01 08:45:37;;;;;;;5.80;2.50;;;;;32.88;97211.00;;;;110762;1251;41607;-66
2022/09/01 08:48:15;;;;;;;6.60;2.20;;;;;32.30;97207.40;;;;110815;1249;41133;-66
2022/09/01 08:51:21;;;;;;;6.80;2.40;;;;;33.14;97206.00;;;;110618;1251;41319;-67
2022/09/01 08:54:23;;;;;;;5.30;2.20;;;;;33.14;97202.00;;;;110545;1252;41150;-67
2022/09/01 08:57:05;;;;;;;5.10;2.10;;;;;33.84;97199.20;;;;110787;1249;41270;-68
2022/09/01 08:59:53;;;;;;;6.10;2.20;;;;;33.56;97194.20;;;;110610;1250;41159;-67
2022/09/01 09:02:36;;;;;;;5.70;2.20;;;;;32.92;97190.60;;;;110556;1251;41639;-67
2022/09/01 09:05:32;;;;;;;6.30;2.30;;;;;32.88;97185.20;;;;110564;1252;41287;-67
2022/09/01 09:08:16;;;;;;;9.00;2.20;;;;;33.52;97176.20;;;;110543;1252;41159;-67
2022/09/01 09:10:54;;;;;;;7.20;2.50;;;;;34.30;97174.60;;;;110914;1250;42395;-66
2022/09/01 09:13:54;;;;;;;6.20;2.10;;;;;34.76;97173.00;;;;110761;1251;41148;-66
2022/09/01 09:16:29;;;;;;;5.00;1.90;;;;;33.94;97167.60;;;;110909;1249;41145;-67
2022/09/01 09:19:21;;;;;;;6.20;2.30;;;;;34.42;97167.00;;;;110765;1249;41159;-68
2022/09/01 09:21:52;;;;;;;4.80;2.00;;;;;33.92;97176.20;;;;110904;1249;41219;-67
2022/09/01 09:24:51;;;;;;;5.90;2.20;;;;;34.18;97168.60;;;;110869;1249;41154;-67
2022/09/01 09:27:31;;;;;;;8.40;2.40;;;;;35.20;97160.40;;;;110594;1249;41300;-68
2022/09/01 09:30:13;;;;;;;5.40;2.20;;;;;32.52;97165.60;;;;110656;1249;41149;-68
2022/09/01 09:32:50;;;;;;;11.00;2.50;;;;;31.40;97170.80;;;;110597;1250;41452;-66
2022/09/01 09:35:42;;;;;;;4.90;2.10;;;;;31.60;97166.40;;;;110854;1251;41621;-67
2022/09/01 09:41:18;;;;;;;7.10;2.50;;;;;32.36;97167.20;;;;110623;1251;41263;-68
2022/09/01 09:44:16;;;;;;;7.90;2.70;;;;;33.26;97155.80;;;;110640;1251;42549;-67
2022/09/01 09:46:47;;;;;;;5.70;2.20;;;;;33.06;97157.80;;;;110746;1250;41156;-67
2022/09/01 09:49:32;;;;;;;4.50;1.90;;;;;33.42;97157.20;;;;110653;1250;41260;-67
2022/09/01 09:52:08;;;;;;;5.00;2.10;;;;;34.68;97155.60;;;;110629;1250;41839;-68
2022/09/01 09:55:02;;;;;;;7.80;2.00;;;;;34.34;97151.80;;;;110746;1252;41142;-67
2022/09/01 09:57:37;;;;;;;6.70;2.60;;;;;35.10;97151.40;;;;110700;1251;41180;-67
2022/09/01 10:00:21;;;;;;;5.90;1.90;;;;;32.44;97164.00;;;;110633;1250;41220;-66
2022/09/01 10:03:12;;;;;;;4.40;1.90;;;;;33.46;97154.20;;;;110627;1251;41178;-67
2022/09/01 10:05:43;;;;;;;7.10;2.10;;;;;33.28;97152.40;;;;110816;1251;41512;-68
2022/09/01 10:08:46;;;;;;;5.60;2.10;;;;;33.46;97162.00;;;;110980;1250;41727;-67
2022/09/01 10:11:48;;;;;;;5.50;2.20;;;;;33.30;97157.40;;;;110742;1252;41571;-67
2022/09/01 10:14:22;;;;;;;5.40;2.20;;;;;32.78;97162.00;;;;110651;1252;41401;-67
2022/09/01 10:17:20;;;;;;;5.60;2.20;;;;;33.70;97160.00;;;;110501;1252;41147;-67
2022/09/01 10:19:56;;;;;;;4.70;2.10;;;;;34.08;97151.80;;;;110585;1251;41269;-67
2022/09/01 10:22:25;;;;;;;5.80;1.90;;;;;32.88;97155.60;;;;110594;1252;41777;-67
2022/09/01 10:24:53;;;;;;;5.50;2.10;;;;;34.16;97150.60;;;;110597;1252;41156;-67
2022/09/01 10:27:29;;;;;;;5.70;2.00;;;;;32.84;97157.80;;;;110565;1252;41153;-67
2022/09/01 10:30:13;;;;;;;4.70;2.10;;;;;32.80;97152.80;;;;110623;1252;41160;-67
2022/09/01 10:32:54;;;;;;;6.40;2.50;;;;;32.58;97151.80;;;;110602;1252;41768;-68
2022/09/01 10:35:30;;;;;;;7.10;2.00;;;;;31.02;97153.80;;;;110619;1251;41145;-68
2022/09/01 10:38:14;;;;;;;4.20;1.90;;;;;31.26;97152.80;;;;110631;1251;41635;-67
2022/09/01 10:40:49;;;;;;;5.10;2.20;;;;;31.82;97153.40;;;;110688;1252;41873;-66
2022/09/01 10:43:34;;;;;;;5.90;2.30;;;;;31.58;97146.60;;;;110549;1252;41273;-66
2022/09/01 10:46:23;;;;;;;5.90;2.00;;;;;32.54;97142.20;;;;110596;1250;41200;-68
2022/09/01 10:48:55;;;;;;;6.90;2.30;;;;;32.64;97143.20;;;;110718;1252;41187;-69
2022/09/01 10:51:29;;;;;;;9.50;2.70;;;;;32.42;97143.00;;;;110645;1252;41167;-68
2022/09/01 10:54:06;;;;;;;7.40;2.60;;;;;31.94;97136.80;;;;110573;1251;41195;-69
2022/09/01 10:56:47;;;;;;;5.50;2.20;;;;;31.60;97137.00;;;;110677;1252;41655;-68
2022/09/01 10:59:22;;;;;;;6.20;2.60;;;;;30.94;97137.00;;;;110641;1252;41202;-68
2022/09/01 11:02:05;;;;;;;7.50;2.50;;;;;30.12;97135.60;;;;110673;1252;41166;-68
2022/09/01 11:04:53;;;;;;;5.60;2.30;;;;;29.64;97139.80;;;;110488;1252;41227;-68
2022/09/01 11:07:22;;;;;;;6.80;2.40;;;;;29.82;97126.00;;;;110628;1252;41319;-67
2022/09/01 11:10:32;;;;;;;6.00;2.60;;;;;30.12;97125.80;;;;110688;1251;41362;-68
2022/09/01 11:13:21;;;;;;;5.00;2.20;;;;;30.60;97113.40;;;;110789;1249;41140;-67
2022/09/01 11:15:51;;;;;;;6.00;2.30;;;;;31.20;97117.00;;;;110741;1249;41326;-67
2022/09/01 11:18:29;;;;;;;6.00;2.20;;;;;31.54;97108.20;;;;110665;1250;41155;-67
2022/09/01 11:21:25;;;;;;;5.70;2.30;;;;;31.92;97098.60;;;;110656;1249;43283;-67
2022/09/01 11:24:31;;;;;;;4.10;1.90;;;;;32.50;97087.60;;;;110704;1250;41131;-67
2022/09/01 11:27:00;;;;;;;6.10;2.30;;;;;32.62;97083.40;;;;110726;1249;41986;-68
2022/09/01 11:29:54;;;;;;;7.10;2.20;;;;;33.02;97079.60;;;;110825;1251;41275;-68
2022/09/01 11:32:41;;;;;;;7.30;2.10;;;;;32.10;97080.80;;;;110771;1249;41260;-67
2022/09/01 11:35:20;;;;;;;4.90;1.90;;;;;33.82;97074.80;;;;110702;1251;41151;-68
2022/09/01 11:37:51;;;;;;;4.50;1.90;;;;;34.24;97069.00;;;;110696;1249;42476;-68
2022/09/01 11:40:27;;;;;;;5.80;2.00;;;;;35.38;97068.60;;;;110572;1251;41425;-68
2022/09/01 11:43:13;;;;;;;6.60;2.40;;;;;36.02;97074.00;;;;110640;1249;41276;-68
2022/09/01 11:46:19;;;;;;;4.50;2.00;;;;;35.26;97088.40;;;;110698;1251;41252;-68
2022/09/01 11:48:48;;;;;;;8.30;2.30;;;;;33.70;97078.00;;;;110839;1249;41140;-68
2022/09/01 11:51:20;;;;;;;5.40;2.00;;;;;33.32;97091.80;;;;110875;1249;42859;-67
2022/09/01 11:53:49;;;;;;;5.20;2.20;;;;;32.36;97082.80;;;;110672;1250;41180;-67
2022/09/01 11:56:24;;;;;;;5.10;2.10;;;;;32.94;97087.40;;;;110536;1251;41159;-68
2022/09/01 11:58:52;;;;;;;4.30;1.90;;;;;32.68;97087.80;;;;110842;1249;42318;-67
2022/09/01 12:01:33;;;;;;;5.00;2.00;;;;;32.30;97086.60;;;;110747;1249;41663;-67
2022/09/01 12:04:26;;;;;;;9.00;2.00;;;;;32.16;97086.00;;;;110810;1249;41910;-67
2022/09/01 12:07:05;;;;;;;5.50;2.10;;;;;31.90;97083.20;;;;110641;1250;42338;-67
2022/09/01 12:09:43;;;;;;;6.30;2.40;;;;;31.66;97083.60;;;;110653;1250;42132;-69
2022/09/01 12:12:37;;;;;;;5.90;2.20;;;;;31.14;97083.80;;;;110805;1249;42375;-68
2022/09/01 12:15:16;;;;;;;5.50;1.80;;;;;30.38;97082.20;;;;110782;1250;41620;-68
2022/09/01 12:17:45;;;;;;;4.40;1.80;;;;;30.66;97079.00;;;;110680;1251;41590;-68
2022/09/01 12:20:25;;;;;;;3.90;1.80;;;;;31.32;97078.40;;;;110681;1250;41265;-68
2022/09/01 12:22:58;;;;;;;7.10;2.30;;;;;32.20;97077.40;;;;110710;1252;41396;-68
2022/09/01 12:25:32;;;;;;;5.40;2.30;;;;;32.16;97078.60;;;;110567;1251;42253;-69
2022/09/01 12:28:02;;;;;;;6.70;2.50;;;;;31.20;97085.00;;;;110633;1250;42497;-68
2022/09/01 12:30:38;;;;;;;6.20;2.50;;;;;29.90;97084.00;;;;110578;1252;42105;-69
2022/09/01 12:33:09;;;;;;;10.90;2.30;;;;;30.04;97082.40;;;;110558;1252;41202;-69
2022/09/01 12:36:13;;;;;;;7.30;2.40;;;;;29.56;97084.80;;;;110820;1250;41614;-68
2022/09/01 12:38:42;;;;;;;6.20;2.40;;;;;28.84;97094.20;;;;110708;1249;41156;-68
2022/09/01 12:41:34;;;;;;;5.70;2.40;;;;;28.92;97094.40;;;;110783;1249;41584;-68
2022/09/01 12:44:29;;;;;;;7.60;2.60;;;;;28.90;97096.00;;;;110647;1250;41920;-68
2022/09/01 12:47:01;;;;;;;8.10;2.60;;;;;28.42;97093.40;;;;110976;1251;41160;-67
2022/09/01 12:49:42;;;;;;;6.30;2.10;;;;;28.00;97091.00;;;;110840;1251;42608;-66
2022/09/01 12:52:18;;;;;;;6.60;2.50;;;;;27.82;97096.80;;;;110752;1249;41152;-66
2022/09/01 12:54:50;;;;;;;5.50;2.40;;;;;27.74;97095.80;;;;110927;1250;41141;-68
2022/09/01 12:57:30;;;;;;;6.20;2.70;;;;;27.44;97103.60;;;;110641;1251;41576;-67
2022/09/01 13:00:29;;;;;;;10.80;2.90;;;;;27.30;97101.00;;;;110700;1250;41151;-68
2022/09/01 13:03:16;;;;;;;6.60;2.50;;;;;26.92;97102.00;;;;110670;1251;41631;-68